Time;durP1;ratioP1;P1;durP2;ratioP2;P2;SDS_P1;SDS_P2;PMS_P1;PMS_P2;Temp;Humidity;BMP_temperature;BMP_pressure;BME280_temperature;BME280_humidity;BME280_pressure;Samples;Min_cycle;Max_cycle;Signal;HPM_P1;HPM_P2
2023/08/08 06:35:44;;;;;;;3.25;1.17;;;;;;;21.21;75.30;100365.03;4966275;28;20068;-73
2023/08/08 06:38:09;;;;;;;11.07;1.88;;;;;;;21.12;75.69;100350.22;4969631;28;20137;-72
2023/08/08 06:40:35;;;;;;;1.40;1.00;;;;;;;21.28;75.65;100371.97;4969488;28;20105;-72
2023/08/08 06:43:00;;;;;;;5.20;1.38;;;;;;;21.33;75.19;100378.06;4971048;28;20166;-73
2023/08/08 06:45:25;;;;;;;2.10;1.27;;;;;;;20.86;74.16;100305.84;4972397;28;20081;-73
2023/08/08 06:47:51;;;;;;;2.50;1.30;;;;;;;21.40;75.15;100384.09;4974344;28;20405;-73
2023/08/08 06:50:16;;;;;;;3.05;1.48;;;;;;;21.46;72.67;100383.19;4973076;28;20064;-73
2023/08/08 06:52:43;;;;;;;2.90;1.27;;;;;;;21.38;73.43;100377.97;4973094;28;20469;-73
2023/08/08 06:55:09;;;;;;;3.33;1.60;;;;;;;21.18;73.88;100338.78;4973286;28;20027;-73
2023/08/08 06:57:35;;;;;;;3.33;1.40;;;;;;;21.52;74.16;100384.88;4972901;28;20038;-72
2023/08/08 07:00:04;;;;;;;3.20;1.00;;;;;;;21.65;77.08;100386.53;4972643;28;20030;-72
2023/08/08 07:02:30;;;;;;;1.80;1.17;;;;;;;21.71;74.12;100402.22;4972678;28;20509;-73
2023/08/08 07:04:55;;;;;;;2.70;1.48;;;;;;;21.64;73.08;100401.41;4973477;28;20035;-73
2023/08/08 07:07:21;;;;;;;3.75;1.25;;;;;;;21.62;73.31;100407.56;4961942;28;20130;-72
2023/08/08 07:09:48;;;;;;;4.20;1.60;;;;;;;21.64;73.86;100414.53;4971628;28;20475;-75
2023/08/08 07:12:14;;;;;;;1.60;1.17;;;;;;;21.45;75.80;100421.69;4972806;28;20114;-71
2023/08/08 07:14:39;;;;;;;2.72;1.30;;;;;;;21.39;73.37;100420.88;4972835;28;20102;-73
2023/08/08 07:17:05;;;;;;;2.65;1.13;;;;;;;21.32;71.04;100435.81;4973241;28;20106;-74
2023/08/08 07:19:31;;;;;;;4.00;1.42;;;;;;;21.13;71.61;100440.34;4972677;28;20062;-75
2023/08/08 07:21:56;;;;;;;2.95;1.00;;;;;;;21.01;72.16;100449.19;4973100;28;20023;-75
2023/08/08 07:24:22;;;;;;;3.72;1.20;;;;;;;20.98;71.91;100451.81;4969474;28;20030;-74
2023/08/08 07:26:48;;;;;;;2.88;1.40;;;;;;;21.04;71.98;100449.16;4972998;28;20031;-75
2023/08/08 07:29:13;;;;;;;1.35;1.10;;;;;;;20.90;72.65;100464.97;4962948;28;20509;-74
2023/08/08 07:31:39;;;;;;;2.13;1.30;;;;;;;20.82;72.02;100462.41;4972611;28;20039;-74
2023/08/08 07:34:04;;;;;;;2.05;1.30;;;;;;;20.72;71.87;100473.81;4972495;28;20044;-76
2023/08/08 07:36:30;;;;;;;1.63;1.23;;;;;;;20.48;72.18;100454.66;4980022;28;20041;-71
2023/08/08 07:38:59;;;;;;;2.58;1.33;;;;;;;20.16;72.85;100471.38;5001908;28;20045;-72
2023/08/08 07:41:26;;;;;;;2.58;1.30;;;;;;;19.89;74.34;100480.16;5002441;28;20029;-72
2023/08/08 07:43:51;;;;;;;2.05;1.50;;;;;;;19.88;76.04;100476.66;5000860;28;20022;-73
2023/08/08 07:46:17;;;;;;;2.17;1.63;;;;;;;19.96;76.07;100474.03;5000377;28;20030;-73
2023/08/08 07:48:42;;;;;;;2.08;1.27;;;;;;;20.21;75.97;100481.81;5002736;28;20026;-74
2023/08/08 07:51:08;;;;;;;1.63;1.20;;;;;;;20.25;75.77;100472.22;5000504;28;20062;-74
2023/08/08 07:53:33;;;;;;;2.28;1.60;;;;;;;19.93;76.87;100428.63;5001841;28;20113;-74
2023/08/08 07:55:58;;;;;;;2.42;1.42;;;;;;;19.94;79.65;100472.28;5001646;28;20466;-74
2023/08/08 07:58:25;;;;;;;1.92;1.42;;;;;;;19.35;83.13;100493.22;5000405;28;20049;-71
2023/08/08 08:00:53;;;;;;;5.60;1.90;;;;;;;19.53;85.94;100490.63;4998770;28;20105;-75
2023/08/08 08:03:19;;;;;;;5.05;1.95;;;;;;;19.29;87.65;100507.19;5000747;28;20030;-73
2023/08/08 08:05:44;;;;;;;4.35;1.55;;;;;;;18.91;89.48;100495.72;5001614;28;20035;-72
2023/08/08 08:08:09;;;;;;;3.22;1.90;;;;;;;18.94;92.17;100483.53;4983257;28;20027;-75
2023/08/08 08:10:35;;;;;;;4.22;1.90;;;;;;;19.35;89.23;100494.09;4981465;28;20120;-74
2023/08/08 08:13:00;;;;;;;3.28;1.77;;;;;;;19.43;87.71;100488.88;4981652;28;20029;-72
2023/08/08 08:15:26;;;;;;;2.40;1.55;;;;;;;19.46;86.57;100477.53;4980299;28;20019;-71
2023/08/08 08:17:51;;;;;;;3.88;1.73;;;;;;;19.32;87.93;100462.69;4985007;28;20473;-75
2023/08/08 08:20:17;;;;;;;3.90;1.90;;;;;;;19.56;85.24;100479.25;4983375;28;20026;-74
2023/08/08 08:22:42;;;;;;;2.58;1.98;;;;;;;19.42;85.35;100460.94;4990178;28;20034;-75
2023/08/08 08:25:09;;;;;;;3.20;1.90;;;;;;;19.72;84.89;100474.91;4986042;28;20092;-73
2023/08/08 08:27:38;;;;;;;5.10;1.90;;;;;;;19.11;82.91;100363.22;4971220;28;20039;-73
2023/08/08 08:30:05;;;;;;;3.20;1.80;;;;;;;19.66;84.30;100464.44;4985193;28;20414;-74
2023/08/08 08:32:34;;;;;;;2.45;1.55;;;;;;;19.55;84.62;100474.91;4955104;28;20034;-76
2023/08/08 08:35:06;;;;;;;2.55;1.52;;;;;;;19.29;83.38;100415.56;4953166;28;20493;-76
2023/08/08 08:37:32;;;;;;;3.60;1.60;;;;;;;19.19;84.16;100427.78;4965584;28;20167;-72
2023/08/08 08:39:57;;;;;;;3.60;1.92;;;;;;;19.51;84.37;100494.97;4963759;28;20250;-70
2023/08/08 08:42:23;;;;;;;3.88;1.90;;;;;;;19.22;86.45;100494.94;4957546;28;20066;-72
2023/08/08 08:44:49;;;;;;;3.78;1.90;;;;;;;19.12;86.73;100473.13;4950102;28;20035;-73
2023/08/08 08:47:19;;;;;;;3.08;2.10;;;;;;;19.07;87.85;100499.28;4965445;28;20131;-74
2023/08/08 08:49:45;;;;;;;3.10;1.90;;;;;;;18.98;89.87;100495.75;4965057;28;20030;-73
2023/08/08 08:52:12;;;;;;;4.43;2.15;;;;;;;19.01;91.06;100467.84;4951414;28;20054;-73
2023/08/08 08:54:38;;;;;;;2.53;1.92;;;;;;;18.81;93.12;100511.38;4955933;28;20083;-75
2023/08/08 08:57:04;;;;;;;4.15;2.10;;;;;;;18.80;93.17;100523.56;4951710;28;20035;-72
2023/08/08 08:59:29;;;;;;;2.03;1.77;;;;;;;18.76;94.45;100516.59;4948157;28;20039;-76
2023/08/08 09:01:57;;;;;;;3.47;2.15;;;;;;;18.89;95.29;100513.16;4930563;29;20068;-76
2023/08/08 09:04:23;;;;;;;3.33;2.00;;;;;;;18.83;93.87;100507.00;4949800;28;20047;-74
2023/08/08 09:06:51;;;;;;;4.60;2.20;;;;;;;19.00;93.38;100512.34;4949867;28;20037;-73
2023/08/08 09:09:17;;;;;;;4.47;2.15;;;;;;;18.72;94.24;100452.94;4955229;28;20413;-73
2023/08/08 09:11:48;;;;;;;4.70;2.25;;;;;;;18.88;96.06;100503.56;4952451;28;20027;-72
2023/08/08 09:14:18;;;;;;;4.10;2.20;;;;;;;18.02;100.00;100458.69;4951740;28;20035;-72
2023/08/08 09:16:46;;;;;;;2.45;2.10;;;;;;;18.21;100.00;100504.13;4951850;29;20027;-74
2023/08/08 09:19:12;;;;;;;5.47;2.50;;;;;;;18.35;100.00;100517.25;4969002;28;20035;-75
2023/08/08 09:21:38;;;;;;;4.25;2.28;;;;;;;18.30;100.00;100522.44;4930239;29;20430;-75
2023/08/08 09:24:03;;;;;;;2.78;2.13;;;;;;;18.30;100.00;100526.81;4930419;29;20038;-75
2023/08/08 09:26:29;;;;;;;3.67;2.58;;;;;;;17.71;100.00;100479.38;4930385;29;20052;-76
2023/08/08 09:28:54;;;;;;;2.92;2.45;;;;;;;17.92;100.00;100525.66;4930244;29;20038;-75
2023/08/08 09:31:20;;;;;;;4.07;2.53;;;;;;;17.72;100.00;100505.47;4917558;29;20102;-75
2023/08/08 09:33:48;;;;;;;3.22;2.60;;;;;;;17.91;100.00;100536.97;4914023;29;20450;-73
2023/08/08 09:36:16;;;;;;;4.00;3.00;;;;;;;18.06;100.00;100517.97;4931341;28;20683;-74
2023/08/08 09:38:42;;;;;;;3.63;2.65;;;;;;;18.08;100.00;100518.81;4939691;29;20043;-73
2023/08/08 09:41:08;;;;;;;3.17;2.63;;;;;;;18.11;100.00;100526.69;4938538;29;20046;-74
2023/08/08 09:43:34;;;;;;;3.28;2.58;;;;;;;18.06;100.00;100500.53;4930481;29;20083;-73
2023/08/08 09:46:01;;;;;;;4.22;2.75;;;;;;;18.18;100.00;100517.16;4914257;29;20079;-73
2023/08/08 09:48:31;;;;;;;2.80;2.50;;;;;;;18.22;100.00;100511.09;4918877;29;20538;-72
2023/08/08 09:50:59;;;;;;;3.13;2.58;;;;;;;18.33;100.00;100517.25;4924166;29;20028;-70
2023/08/08 09:53:27;;;;;;;7.90;2.78;;;;;;;18.38;100.00;100522.50;4961641;28;20680;-73
2023/08/08 09:55:55;;;;;;;3.72;2.58;;;;;;;18.36;100.00;100505.94;4955681;28;20486;-74
2023/08/08 09:58:20;;;;;;;3.05;2.45;;;;;;;18.45;100.00;100500.75;4966262;28;20043;-74
2023/08/08 10:00:49;;;;;;;4.05;3.10;;;;;;;18.07;100.00;100488.38;4958896;28;20525;-76
2023/08/08 10:03:16;;;;;;;4.60;3.13;;;;;;;18.30;100.00;100513.75;4954005;28;20117;-74
2023/08/08 10:05:42;;;;;;;3.38;2.58;;;;;;;18.46;100.00;100512.09;4967650;28;20042;-73
2023/08/08 10:08:08;;;;;;;3.85;2.53;;;;;;;18.06;100.00;100453.50;4935649;29;20039;-73
2023/08/08 10:10:34;;;;;;;3.85;2.53;;;;;;;18.69;100.00;100501.72;4967603;28;20042;-73
2023/08/08 10:13:00;;;;;;;3.72;2.70;;;;;;;18.80;100.00;100475.63;4982977;28;20039;-74
2023/08/08 10:15:29;;;;;;;4.15;2.65;;;;;;;19.05;100.00;100515.84;4969718;28;20406;-73
2023/08/08 10:18:00;;;;;;;3.92;3.22;;;;;;;18.80;100.00;100520.09;4971329;28;20038;-72
2023/08/08 10:20:25;;;;;;;5.30;3.50;;;;;;;18.75;100.00;100509.59;4976782;28;20026;-73
2023/08/08 10:22:54;;;;;;;4.75;2.88;;;;;;;18.75;100.00;100504.38;4991671;28;20045;-73
2023/08/08 10:25:20;;;;;;;3.93;2.73;;;;;;;19.09;100.00;100525.47;4974404;28;20098;-72
2023/08/08 10:27:45;;;;;;;2.97;2.33;;;;;;;19.21;100.00;100519.38;4974103;28;20409;-73
2023/08/08 10:30:13;;;;;;;5.03;2.90;;;;;;;18.11;100.00;100315.06;4993303;28;20481;-74
2023/08/08 10:32:48;;;;;;;3.97;2.95;;;;;;;19.18;100.00;100506.28;4985846;28;20058;-75
2023/08/08 10:35:14;;;;;;;4.55;3.03;;;;;;;19.38;100.00;100506.31;4934958;29;20040;-75
2023/08/08 10:37:41;;;;;;;3.78;2.70;;;;;;;19.51;100.00;100508.06;4928098;29;20632;-75
2023/08/08 10:40:07;;;;;;;4.57;3.13;;;;;;;19.88;100.00;100504.63;4932055;29;20511;-74
2023/08/08 10:42:41;;;;;;;3.72;2.50;;;;;;;19.95;100.00;100443.47;4932911;29;20111;-74
2023/08/08 10:45:15;;;;;;;5.50;2.95;;;;;;;20.74;100.00;100497.44;4932502;29;20447;-73
2023/08/08 10:47:41;;;;;;;4.20;2.72;;;;;;;20.90;100.00;100456.22;4945976;29;20046;-74
2023/08/08 10:50:15;;;;;;;4.35;2.42;;;;;;;21.38;100.00;100498.78;4951915;29;20039;-76
2023/08/08 10:52:51;;;;;;;2.53;2.30;;;;;;;21.53;99.26;100497.78;4931778;29;20542;-74
2023/08/08 10:55:31;;;;;;;3.60;2.38;;;;;;;21.72;100.00;100502.94;4931041;29;20633;-75
2023/08/08 10:58:12;;;;;;;3.83;2.40;;;;;;;21.50;100.00;100482.94;4931305;29;20039;-73
2023/08/08 11:00:39;;;;;;;2.50;2.15;;;;;;;21.46;100.00;100491.72;4928898;29;20083;-73
2023/08/08 11:03:05;;;;;;;5.65;1.85;;;;;;;21.49;94.67;100488.22;4928993;29;20561;-74
2023/08/08 11:05:34;;;;;;;2.08;1.80;;;;;;;21.94;95.04;100487.84;4940434;28;20051;-74
2023/08/08 11:08:00;;;;;;;2.58;1.77;;;;;;;22.10;89.31;100455.25;4968978;28;20030;-75
2023/08/08 11:10:32;;;;;;;4.55;1.90;;;;;;;22.33;90.93;100484.81;4971574;28;20045;-73
2023/08/08 11:13:03;;;;;;;3.30;1.77;;;;;;;22.34;87.94;100486.56;4971235;28;20516;-73
2023/08/08 11:15:29;;;;;;;3.85;1.50;;;;;;;22.69;87.43;100482.66;4971405;28;20033;-73
2023/08/08 11:17:57;;;;;;;2.30;1.65;;;;;;;22.74;84.39;100454.50;4972100;28;20031;-74
2023/08/08 11:20:23;;;;;;;2.37;1.60;;;;;;;23.12;82.87;100476.78;4972176;28;20446;-73
2023/08/08 11:22:55;;;;;;;2.15;1.45;;;;;;;22.75;78.91;100483.47;4972223;28;20482;-73
2023/08/08 11:25:26;;;;;;;3.40;1.67;;;;;;;22.66;82.67;100478.31;4972484;28;20027;-73
2023/08/08 11:27:53;;;;;;;2.80;1.73;;;;;;;23.06;79.42;100472.47;4972178;28;20018;-74
2023/08/08 11:30:20;;;;;;;2.30;1.80;;;;;;;23.10;81.04;100470.69;4971425;28;20030;-74
2023/08/08 11:32:50;;;;;;;2.17;1.63;;;;;;;23.51;79.32;100447.25;4972171;28;20048;-72
2023/08/08 11:35:18;;;;;;;2.28;1.60;;;;;;;23.33;78.61;100438.75;4972578;28;20030;-74
2023/08/08 11:37:45;;;;;;;2.15;1.70;;;;;;;23.20;77.23;100395.06;4981397;28;20141;-73
2023/08/08 11:40:12;;;;;;;2.20;1.77;;;;;;;23.52;74.65;100434.03;4982668;28;20035;-72
2023/08/08 11:42:38;;;;;;;1.95;1.50;;;;;;;23.63;74.03;100440.88;4981681;28;20563;-73
2023/08/08 11:45:04;;;;;;;1.80;1.23;;;;;;;23.58;73.97;100412.00;4983285;28;20062;-74
2023/08/08 11:47:35;;;;;;;1.38;1.25;;;;;;;24.16;75.57;100428.50;4982220;28;20105;-74
2023/08/08 11:50:02;;;;;;;1.27;1.10;;;;;;;24.48;64.72;100419.03;4981142;28;20027;-72
2023/08/08 11:52:28;;;;;;;1.30;1.20;;;;;;;24.63;63.85;100388.78;4980409;28;20504;-74
2023/08/08 11:54:53;;;;;;;3.22;1.05;;;;;;;24.90;63.92;100418.16;4982780;28;20034;-74
2023/08/08 11:57:18;;;;;;;1.00;0.82;;;;;;;25.19;62.56;100419.22;4981202;28;20030;-73
2023/08/08 11:59:44;;;;;;;1.70;1.10;;;;;;;24.73;65.01;100422.97;4982958;28;20037;-73
2023/08/08 12:02:10;;;;;;;0.95;0.90;;;;;;;24.48;62.21;100413.75;4981999;28;20073;-73
2023/08/08 12:04:36;;;;;;;2.47;1.30;;;;;;;24.81;65.44;100406.03;4981571;28;20029;-73
2023/08/08 12:07:03;;;;;;;2.40;1.17;;;;;;;24.89;63.70;100403.22;4983144;28;20034;-72
2023/08/08 12:09:32;;;;;;;1.75;1.10;;;;;;;24.76;64.19;100399.09;4981818;28;20474;-74
2023/08/08 12:12:02;;;;;;;1.33;1.20;;;;;;;24.97;64.07;100348.44;4981126;28;20057;-74
2023/08/08 12:14:28;;;;;;;1.17;1.08;;;;;;;25.46;63.16;100385.97;4982476;28;20036;-73
2023/08/08 12:16:54;;;;;;;1.90;1.20;;;;;;;25.63;61.35;100382.91;4983178;28;20417;-74
2023/08/08 12:19:24;;;;;;;2.33;1.40;;;;;;;25.39;60.74;100371.19;4982490;28;20054;-73
2023/08/08 12:21:51;;;;;;;1.75;1.20;;;;;;;25.64;60.46;100370.53;4989491;28;20026;-73
2023/08/08 12:24:17;;;;;;;2.05;1.40;;;;;;;25.87;64.47;100348.75;4981818;28;20411;-73
2023/08/08 12:26:43;;;;;;;2.85;1.48;;;;;;;26.28;60.94;100365.22;4980668;28;20045;-73
2023/08/08 12:29:08;;;;;;;1.60;1.40;;;;;;;25.92;61.99;100362.69;4982986;28;20022;-74
2023/08/08 12:31:34;;;;;;;1.67;1.55;;;;;;;25.98;60.41;100345.78;4981792;28;20029;-74
2023/08/08 12:34:00;;;;;;;2.15;1.50;;;;;;;26.17;61.74;100351.44;4981356;28;20129;-72
2023/08/08 12:36:25;;;;;;;2.08;1.60;;;;;;;25.94;58.46;100309.75;4984243;28;20637;-74
2023/08/08 12:38:51;;;;;;;1.98;1.40;;;;;;;26.26;58.96;100351.16;4990836;28;20106;-74
2023/08/08 12:41:16;;;;;;;2.30;1.60;;;;;;;26.24;57.53;100339.72;4991290;28;20034;-74
2023/08/08 12:43:42;;;;;;;2.13;1.50;;;;;;;26.51;56.49;100328.38;4990786;28;20023;-74
2023/08/08 12:46:07;;;;;;;3.03;1.80;;;;;;;26.12;57.41;100287.19;4991185;28;20034;-73
2023/08/08 12:48:33;;;;;;;1.85;1.38;;;;;;;26.46;56.66;100341.75;4991088;28;20028;-74
2023/08/08 12:50:58;;;;;;;2.63;1.90;;;;;;;26.11;55.17;100335.75;4990950;28;20077;-73
2023/08/08 12:53:24;;;;;;;2.90;1.60;;;;;;;26.41;56.28;100328.63;4939123;29;20035;-72
2023/08/08 12:55:49;;;;;;;1.70;1.25;;;;;;;26.25;53.82;100330.03;4941156;29;20050;-73
2023/08/08 12:58:15;;;;;;;1.80;1.50;;;;;;;26.38;54.18;100333.16;4939776;29;20587;-73
2023/08/08 13:00:40;;;;;;;5.35;1.45;;;;;;;26.44;55.47;100328.56;4939461;29;20042;-74
2023/08/08 13:03:06;;;;;;;3.60;2.03;;;;;;;26.75;54.75;100330.22;4948722;29;20086;-74
2023/08/08 13:05:31;;;;;;;2.20;1.58;;;;;;;26.58;53.00;100320.19;4935578;29;20049;-74
2023/08/08 13:07:57;;;;;;;4.80;1.50;;;;;;;27.08;55.73;100313.28;4939484;29;20050;-74
2023/08/08 13:10:22;;;;;;;1.52;1.35;;;;;;;27.43;54.65;100313.88;4950412;29;20125;-74
2023/08/08 13:12:48;;;;;;;3.53;1.58;;;;;;;27.43;52.33;100303.25;4950105;29;20082;-74
2023/08/08 13:15:15;;;;;;;2.88;1.50;;;;;;;27.59;53.36;100299.13;4950037;29;20433;-74
2023/08/08 13:17:40;;;;;;;2.00;1.50;;;;;;;27.60;52.03;100302.63;4950106;29;20035;-74
2023/08/08 13:20:07;;;;;;;2.08;1.20;;;;;;;27.51;52.50;100300.31;4950042;29;20051;-74
2023/08/08 13:22:33;;;;;;;2.03;1.40;;;;;;;27.75;51.12;100309.16;4950152;29;20110;-74
2023/08/08 13:24:58;;;;;;;3.33;1.55;;;;;;;27.90;49.86;100302.41;4962510;28;20132;-74
2023/08/08 13:27:24;;;;;;;1.83;1.30;;;;;;;28.03;47.69;100293.06;4990800;28;20030;-74
2023/08/08 13:29:49;;;;;;;1.55;1.27;;;;;;;28.33;49.42;100291.97;4987059;28;20037;-74
2023/08/08 13:32:15;;;;;;;2.95;1.30;;;;;;;28.33;48.96;100279.53;4987056;28;20037;-74
2023/08/08 13:34:40;;;;;;;2.75;1.58;;;;;;;28.51;48.19;100293.88;4990555;28;20089;-73
2023/08/08 13:37:05;;;;;;;2.17;1.20;;;;;;;28.07;47.49;100296.50;4990690;28;20050;-74
2023/08/08 13:39:31;;;;;;;2.60;1.15;;;;;;;27.78;47.02;100287.84;4990369;28;20561;-74
2023/08/08 13:41:56;;;;;;;2.47;1.20;;;;;;;27.94;46.83;100274.84;4990747;28;20531;-74
2023/08/08 13:44:22;;;;;;;2.88;1.23;;;;;;;28.14;47.68;100289.16;4988630;28;20041;-75
2023/08/08 13:46:47;;;;;;;1.17;0.93;;;;;;;28.29;49.20;100296.53;4990423;28;20062;-74
2023/08/08 13:49:13;;;;;;;4.38;1.40;;;;;;;28.36;45.87;100283.84;4990533;28;20088;-74
2023/08/08 13:51:38;;;;;;;1.40;1.10;;;;;;;28.32;45.91;100282.25;4990348;28;20026;-74
2023/08/08 13:54:05;;;;;;;2.30;1.10;;;;;;;28.29;47.00;100261.13;4992369;28;20037;-74
2023/08/08 13:56:30;;;;;;;3.47;1.30;;;;;;;28.42;47.93;100294.22;4986539;28;20117;-73
2023/08/08 13:58:55;;;;;;;2.15;1.20;;;;;;;28.40;45.87;100298.75;4991133;28;20037;-74
2023/08/08 14:01:21;;;;;;;2.47;1.20;;;;;;;28.24;43.55;100258.69;4991867;28;20105;-76
2023/08/08 14:03:46;;;;;;;1.33;1.20;;;;;;;28.07;40.28;100283.22;4986517;28;20108;-76
2023/08/08 14:06:12;;;;;;;2.20;1.30;;;;;;;28.14;42.96;100300.66;4958667;28;20034;-73
2023/08/08 14:08:37;;;;;;;1.92;1.10;;;;;;;28.38;41.91;100300.59;4973661;28;20038;-75
2023/08/08 14:11:03;;;;;;;2.33;1.10;;;;;;;28.34;40.88;100272.47;4986518;28;20030;-74
2023/08/08 14:13:28;;;;;;;6.10;2.05;;;;;;;28.55;41.30;100292.81;4970595;28;20628;-75
2023/08/08 14:15:54;;;;;;;1.83;1.30;;;;;;;28.61;41.19;100278.41;4974774;28;20057;-75
2023/08/08 14:18:19;;;;;;;5.30;2.85;;;;;;;28.77;40.61;100277.81;4977935;28;20430;-75
2023/08/08 14:20:45;;;;;;;1.92;1.42;;;;;;;28.66;41.13;100291.50;4983101;28;20034;-72
2023/08/08 14:23:10;;;;;;;1.52;1.20;;;;;;;28.52;39.31;100282.31;4980183;28;20030;-73
2023/08/08 14:25:36;;;;;;;8.00;2.85;;;;;;;28.74;40.38;100286.78;4978753;28;20182;-73
2023/08/08 14:28:02;;;;;;;6.25;3.58;;;;;;;28.57;41.02;100237.84;4990222;28;20034;-73
2023/08/08 14:30:28;;;;;;;6.30;1.70;;;;;;;28.77;41.95;100281.31;4974425;28;20100;-72
2023/08/08 14:32:54;;;;;;;7.22;3.50;;;;;;;28.75;40.10;100285.84;4973104;28;20031;-74
2023/08/08 14:35:20;;;;;;;8.25;3.67;;;;;;;28.84;41.18;100277.47;4974323;28;20045;-73
2023/08/08 14:37:45;;;;;;;6.90;2.25;;;;;;;28.76;40.14;100279.59;4986060;28;20135;-75
2023/08/08 14:40:11;;;;;;;3.20;1.50;;;;;;;28.86;39.40;100282.72;4985624;28;20035;-75
2023/08/08 14:42:36;;;;;;;2.80;1.60;;;;;;;28.96;41.43;100296.50;4976700;28;20138;-75
2023/08/08 14:45:02;;;;;;;4.00;1.30;;;;;;;28.75;41.17;100274.34;4978760;28;20026;-75
2023/08/08 14:47:27;;;;;;;6.60;2.70;;;;;;;28.73;40.57;100282.38;4982506;28;20026;-74
2023/08/08 14:49:53;;;;;;;4.88;2.50;;;;;;;28.37;40.59;100249.28;4992342;28;20023;-75
2023/08/08 14:52:18;;;;;;;3.42;1.40;;;;;;;28.31;39.27;100270.75;4993297;28;20031;-74
2023/08/08 14:54:44;;;;;;;2.38;1.40;;;;;;;28.36;38.30;100294.47;4988905;28;20042;-75
2023/08/08 14:57:10;;;;;;;2.75;1.58;;;;;;;28.31;40.22;100252.19;4993185;28;20092;-75
2023/08/08 14:59:36;;;;;;;2.97;1.38;;;;;;;28.65;41.57;100297.75;4993117;28;20034;-75
2023/08/08 15:02:01;;;;;;;1.00;0.90;;;;;;;28.39;41.00;100246.59;4993594;28;20034;-77
2023/08/08 15:04:27;;;;;;;3.13;1.35;;;;;;;28.02;40.31;100234.75;4982112;28;20018;-74
2023/08/08 15:06:52;;;;;;;1.20;1.10;;;;;;;28.09;39.99;100276.09;4974023;28;20067;-74
2023/08/08 15:09:18;;;;;;;4.97;1.42;;;;;;;28.00;40.32;100292.31;4951921;29;20043;-75
2023/08/08 15:11:43;;;;;;;2.92;1.50;;;;;;;27.87;39.85;100278.66;4951677;29;20043;-74
2023/08/08 15:14:09;;;;;;;4.95;1.50;;;;;;;27.69;39.97;100272.25;4951447;29;20048;-75
2023/08/08 15:16:34;;;;;;;5.28;1.40;;;;;;;27.68;41.04;100274.06;4935588;29;20179;-75
2023/08/08 15:19:01;;;;;;;4.07;1.38;;;;;;;27.79;40.31;100268.34;4951429;29;20039;-74
2023/08/08 15:21:26;;;;;;;3.13;1.75;;;;;;;28.05;42.09;100291.25;4969787;28;20045;-74
2023/08/08 15:23:52;;;;;;;1.92;1.30;;;;;;;28.20;39.61;100281.84;4969414;28;20042;-75
2023/08/08 15:26:20;;;;;;;1.10;1.00;;;;;;;28.05;39.24;100264.72;4952519;28;20071;-74
2023/08/08 15:28:45;;;;;;;5.32;0.98;;;;;;;27.82;39.96;100256.75;4954645;28;20130;-75
2023/08/08 15:31:11;;;;;;;2.63;1.08;;;;;;;27.63;40.22;100233.59;4954471;28;20039;-75
2023/08/08 15:33:38;;;;;;;0.85;0.80;;;;;;;27.95;39.38;100275.72;4970833;28;20023;-74
2023/08/08 15:36:04;;;;;;;1.77;0.70;;;;;;;27.64;39.54;100284.81;4970309;28;20043;-73
2023/08/08 15:38:30;;;;;;;4.47;0.98;;;;;;;27.75;40.12;100298.53;4970125;28;20041;-74
2023/08/08 15:40:55;;;;;;;4.65;1.30;;;;;;;27.68;39.99;100281.16;4969394;28;20497;-73
2023/08/08 15:43:21;;;;;;;2.47;0.90;;;;;;;27.61;40.92;100301.72;4988272;28;20116;-75
2023/08/08 15:45:48;;;;;;;0.68;0.68;;;;;;;27.49;40.78;100268.56;4991967;28;20030;-75
2023/08/08 15:48:16;;;;;;;1.27;0.88;;;;;;;27.63;40.01;100301.66;4992409;28;20026;-74
2023/08/08 15:50:41;;;;;;;1.90;0.80;;;;;;;27.51;40.14;100287.94;4991876;28;20593;-75
2023/08/08 15:53:07;;;;;;;12.27;1.70;;;;;;;27.47;40.27;100294.28;4979648;28;20046;-74
2023/08/08 15:55:33;;;;;;;6.22;1.10;;;;;;;27.56;40.02;100309.84;4977878;28;20031;-74
2023/08/08 15:57:58;;;;;;;9.65;1.98;;;;;;;27.46;40.36;100296.97;4992064;28;20033;-75
2023/08/08 16:00:24;;;;;;;2.80;0.70;;;;;;;27.36;41.08;100291.13;4990758;28;20052;-75
2023/08/08 16:02:49;;;;;;;1.40;0.77;;;;;;;27.25;40.42;100294.13;4991305;28;20022;-74
2023/08/08 16:05:15;;;;;;;0.77;0.75;;;;;;;27.19;40.18;100305.84;4982145;28;20405;-73
2023/08/08 16:07:40;;;;;;;8.63;1.00;;;;;;;27.01;40.58;100317.06;4987048;28;20025;-75
2023/08/08 16:10:07;;;;;;;2.47;0.90;;;;;;;26.83;40.33;100306.16;4991651;28;20109;-74
2023/08/08 16:12:35;;;;;;;6.47;1.13;;;;;;;26.66;43.32;100308.47;4991419;28;20026;-75
2023/08/08 16:15:01;;;;;;;3.47;0.75;;;;;;;26.57;42.16;100326.38;4990338;28;20394;-74
2023/08/08 16:17:28;;;;;;;1.33;0.80;;;;;;;26.58;42.16;100330.78;4990445;28;20022;-74
2023/08/08 16:19:54;;;;;;;2.47;0.85;;;;;;;26.05;42.68;100256.53;4991647;28;20042;-74
2023/08/08 16:22:19;;;;;;;3.53;1.00;;;;;;;26.38;43.07;100333.16;4990970;28;20138;-74
2023/08/08 16:24:45;;;;;;;3.08;0.80;;;;;;;26.22;43.60;100324.81;4991227;28;20032;-74
2023/08/08 16:30:23;;;;;;;1.75;0.98;;;;;;;25.87;44.47;100334.63;4942973;28;20057;-75
2023/08/08 16:32:48;;;;;;;2.53;0.88;;;;;;;25.59;44.72;100286.06;4935341;28;20118;-75
2023/08/08 16:35:14;;;;;;;2.85;0.80;;;;;;;25.78;44.27;100327.84;4969816;28;20039;-75
2023/08/08 16:37:39;;;;;;;6.00;0.90;;;;;;;25.74;44.30;100334.13;4971841;28;20023;-74
2023/08/08 16:40:05;;;;;;;1.00;0.57;;;;;;;25.71;43.95;100350.06;4954673;28;20038;-75
2023/08/08 16:42:30;;;;;;;2.75;0.93;;;;;;;25.18;44.39;100285.38;4971999;28;20085;-74
2023/08/08 16:44:56;;;;;;;1.58;0.75;;;;;;;25.46;44.94;100335.75;4971719;28;20470;-75
2023/08/08 16:47:22;;;;;;;4.50;0.80;;;;;;;25.57;45.19;100353.97;4954475;28;20033;-75
2023/08/08 16:49:47;;;;;;;3.45;0.90;;;;;;;25.45;45.83;100354.31;4971125;28;20062;-75
2023/08/08 16:52:13;;;;;;;1.83;0.80;;;;;;;25.47;45.96;100368.31;4971882;28;20565;-75
2023/08/08 16:54:39;;;;;;;2.75;1.27;;;;;;;25.46;46.25;100366.59;4970986;28;20027;-74
2023/08/08 16:57:05;;;;;;;1.77;0.95;;;;;;;25.35;46.72;100356.28;4935427;28;20031;-75
2023/08/08 16:59:30;;;;;;;1.13;0.80;;;;;;;25.06;46.62;100312.13;4952682;28;20185;-75
2023/08/08 17:01:56;;;;;;;1.40;0.90;;;;;;;25.22;46.47;100371.56;4949430;28;20020;-74
2023/08/08 17:04:21;;;;;;;2.40;0.70;;;;;;;25.08;47.23;100366.66;4966100;28;20047;-74
2023/08/08 17:06:47;;;;;;;6.10;1.42;;;;;;;25.02;47.95;100383.53;4971710;28;20030;-74
2023/08/08 17:09:14;;;;;;;7.35;1.38;;;;;;;24.71;48.45;100330.56;4970211;28;20692;-74
2023/08/08 17:11:39;;;;;;;1.70;1.00;;;;;;;24.95;47.98;100384.56;4971411;28;20082;-74
2023/08/08 17:14:05;;;;;;;4.60;1.15;;;;;;;24.81;48.50;100369.06;4971379;28;20027;-74
2023/08/08 17:16:30;;;;;;;2.33;1.00;;;;;;;24.75;49.55;100381.53;4971372;28;20426;-75
2023/08/08 17:18:56;;;;;;;3.13;1.10;;;;;;;24.74;49.20;100382.47;4971126;28;20836;-74
2023/08/08 17:21:21;;;;;;;1.33;1.00;;;;;;;24.76;48.85;100399.09;4970926;28;20509;-74
2023/08/08 17:23:47;;;;;;;4.47;1.30;;;;;;;24.60;48.67;100380.97;4971557;28;20038;-75
2023/08/08 17:26:12;;;;;;;3.67;1.15;;;;;;;24.69;49.60;100390.47;4970904;28;20026;-76
2023/08/08 17:28:37;;;;;;;3.13;1.00;;;;;;;24.74;49.15;100406.22;4970762;28;20047;-73
2023/08/08 17:31:03;;;;;;;2.47;1.00;;;;;;;24.66;49.98;100399.34;4971064;28;20038;-73
2023/08/08 17:33:29;;;;;;;2.70;1.10;;;;;;;24.62;50.13;100400.25;4969966;28;20035;-74
2023/08/08 17:35:55;;;;;;;1.92;1.30;;;;;;;24.62;50.72;100408.16;4971390;28;20030;-73
2023/08/08 17:38:20;;;;;;;1.80;1.15;;;;;;;24.52;50.90;100396.09;4971221;28;20458;-74
2023/08/08 17:40:46;;;;;;;6.95;1.20;;;;;;;24.50;50.95;100398.78;4971115;28;20030;-73
2023/08/08 17:43:12;;;;;;;2.70;1.20;;;;;;;24.41;51.50;100379.63;4970534;28;20030;-75
2023/08/08 17:45:37;;;;;;;2.08;1.23;;;;;;;24.09;51.73;100352.16;4970916;28;20027;-74
2023/08/08 17:48:03;;;;;;;6.57;1.45;;;;;;;24.34;51.23;100413.19;4970991;28;20023;-74
2023/08/08 17:50:30;;;;;;;1.70;1.10;;;;;;;24.32;52.14;100423.75;4969483;28;20031;-74
2023/08/08 17:52:55;;;;;;;3.67;1.15;;;;;;;24.22;51.87;100423.13;4969507;28;20031;-74
2023/08/08 17:55:21;;;;;;;4.45;1.27;;;;;;;24.19;53.06;100430.22;4971150;28;20462;-74
2023/08/08 17:57:46;;;;;;;2.55;1.27;;;;;;;24.07;52.92;100415.50;4970512;28;20061;-74